createdAt,value
2022-12-18T00:01:35.871Z,73.70
2022-12-18T00:04:07.416Z,73.70
2022-12-18T00:06:36.455Z,73.70
2022-12-18T00:09:05.134Z,73.60
2022-12-18T00:11:32.990Z,73.60
2022-12-18T00:14:01.539Z,73.60
2022-12-18T00:16:31.276Z,73.60
2022-12-18T00:18:58.728Z,73.60
2022-12-18T00:21:26.507Z,73.60
2022-12-18T00:23:53.752Z,73.60
2022-12-18T00:26:30.712Z,73.70
2022-12-18T00:29:02.021Z,73.70
2022-12-18T00:31:29.603Z,73.70
2022-12-18T00:33:58.132Z,73.70
2022-12-18T00:36:31.005Z,73.70
2022-12-18T00:39:00.018Z,73.70
2022-12-18T00:41:46.897Z,73.70
2022-12-18T00:44:17.644Z,73.70
2022-12-18T00:46:46.280Z,73.70
2022-12-18T00:49:13.393Z,73.80
2022-12-18T00:51:40.823Z,73.70
2022-12-18T00:54:08.004Z,73.70
2022-12-18T00:56:45.752Z,73.60
2022-12-18T00:59:16.177Z,73.60
2022-12-18T01:01:43.724Z,73.60
2022-12-18T01:04:11.004Z,73.50
2022-12-18T01:06:38.072Z,73.60
2022-12-18T01:09:05.607Z,73.60
2022-12-18T01:11:32.686Z,73.60
2022-12-18T01:14:01.033Z,73.60
2022-12-18T01:16:28.461Z,73.60
2022-12-18T01:18:56.518Z,73.60
2022-12-18T01:21:25.121Z,73.70
2022-12-18T01:23:57.785Z,73.70
2022-12-18T01:26:26.896Z,73.70
2022-12-18T01:28:58.895Z,73.70
2022-12-18T01:31:29.599Z,73.90
2022-12-18T01:33:57.293Z,73.90
2022-12-18T01:36:36.690Z,73.90
2022-12-18T01:39:12.147Z,73.90
2022-12-18T01:41:58.187Z,73.70
2022-12-18T01:45:05.338Z,73.70
2022-12-18T01:47:56.285Z,73.70
2022-12-18T01:50:25.492Z,73.70
2022-12-18T01:53:22.753Z,73.70
2022-12-18T01:55:53.320Z,73.70
2022-12-18T01:58:25.459Z,73.60
2022-12-18T02:00:52.663Z,73.70
2022-12-18T02:03:19.850Z,73.60
2022-12-18T02:06:13.719Z,73.60
2022-12-18T02:09:15.022Z,73.60
2022-12-18T02:11:57.488Z,73.60
2022-12-18T02:14:58.217Z,73.50
2022-12-18T02:17:33.006Z,73.50
2022-12-18T02:20:18.096Z,73.60
2022-12-18T02:23:28.489Z,73.50
2022-12-18T02:26:40.231Z,73.60
2022-12-18T02:29:09.843Z,73.60
2022-12-18T02:31:57.444Z,73.70
2022-12-18T02:34:30.431Z,73.50
2022-12-18T02:37:01.829Z,73.50
2022-12-18T02:39:30.673Z,73.60
2022-12-18T02:41:59.700Z,73.70
2022-12-18T02:44:26.908Z,73.60
2022-12-18T02:46:55.441Z,73.60
2022-12-18T02:49:28.872Z,73.60
2022-12-18T02:52:35.658Z,73.70
2022-12-18T02:56:02.050Z,73.80
2022-12-18T03:02:13.842Z,73.70
2022-12-18T03:05:01.830Z,73.80
2022-12-18T03:07:59.968Z,73.80
2022-12-18T03:10:32.190Z,73.90
2022-12-18T03:13:16.026Z,73.90
2022-12-18T03:15:54.442Z,73.90
2022-12-18T03:18:36.997Z,73.90
2022-12-18T03:21:07.661Z,73.90
2022-12-18T03:23:44.735Z,73.90
2022-12-18T03:26:17.360Z,73.90
2022-12-18T03:28:52.394Z,73.90
2022-12-18T03:31:23.710Z,73.70
2022-12-18T03:33:56.326Z,73.70
2022-12-18T03:36:24.856Z,73.70
2022-12-18T03:38:52.687Z,73.60
2022-12-18T03:41:46.101Z,73.60
2022-12-18T03:44:40.455Z,73.60
2022-12-18T03:47:20.772Z,73.60
2022-12-18T03:49:50.523Z,73.60
2022-12-18T03:52:26.468Z,73.60
2022-12-18T03:54:56.236Z,73.60
2022-12-18T03:57:28.264Z,73.60
2022-12-18T04:00:12.425Z,73.60
2022-12-18T04:02:54.167Z,73.60
2022-12-18T04:05:23.155Z,73.60
2022-12-18T04:07:52.935Z,73.60
2022-12-18T04:10:20.352Z,73.60
2022-12-18T04:12:47.568Z,73.60
2022-12-18T04:15:14.821Z,73.60
2022-12-18T04:17:50.460Z,73.60
2022-12-18T04:20:18.443Z,73.70
2022-12-18T04:22:46.010Z,73.70
2022-12-18T04:25:13.428Z,73.70
2022-12-18T04:27:40.750Z,73.70
2022-12-18T04:30:09.336Z,73.70
2022-12-18T04:32:36.743Z,73.70
2022-12-18T04:35:05.295Z,73.60
2022-12-18T04:37:32.428Z,73.60
2022-12-18T04:40:00.098Z,73.60
2022-12-18T04:42:27.109Z,73.60
2022-12-18T04:44:54.106Z,73.60
2022-12-18T04:47:21.116Z,73.50
2022-12-18T04:49:48.123Z,73.50
2022-12-18T04:52:15.260Z,73.50
2022-12-18T04:54:42.265Z,73.50
2022-12-18T04:57:09.299Z,73.50
2022-12-18T04:59:36.776Z,73.50
2022-12-18T05:02:03.999Z,73.50
2022-12-18T05:04:31.113Z,73.50
2022-12-18T05:06:58.252Z,73.50
2022-12-18T05:09:25.286Z,73.50
2022-12-18T05:11:52.361Z,73.50
2022-12-18T05:14:19.583Z,73.50
2022-12-18T05:16:46.636Z,73.50
2022-12-18T05:19:13.812Z,73.50
2022-12-18T05:21:41.392Z,73.50
2022-12-18T05:24:08.833Z,73.50
2022-12-18T05:26:35.836Z,73.50
2022-12-18T05:29:02.995Z,73.50
2022-12-18T05:31:32.411Z,73.50
2022-12-18T05:34:03.040Z,73.50
2022-12-18T05:36:30.043Z,73.50
2022-12-18T05:38:57.117Z,73.60
2022-12-18T05:41:24.193Z,73.60
2022-12-18T05:43:51.243Z,73.60
2022-12-18T05:46:19.206Z,73.50
2022-12-18T05:48:46.977Z,73.70
2022-12-18T05:51:17.695Z,73.70
2022-12-18T05:53:45.016Z,73.60
2022-12-18T05:56:18.617Z,73.70
2022-12-18T05:58:46.227Z,73.60
2022-12-18T06:01:21.210Z,73.60
2022-12-18T06:03:48.399Z,73.60
2022-12-18T06:06:25.927Z,73.60
2022-12-18T06:08:54.368Z,73.60
2022-12-18T06:11:25.390Z,73.60
2022-12-18T06:13:58.151Z,73.60
2022-12-18T06:16:27.264Z,73.50
2022-12-18T06:18:56.976Z,73.50
2022-12-18T06:21:24.108Z,73.40
2022-12-18T06:23:51.154Z,73.40
2022-12-18T06:26:20.179Z,73.50
2022-12-18T06:28:50.503Z,73.50
2022-12-18T06:31:17.766Z,73.50
2022-12-18T06:33:44.817Z,73.50
2022-12-18T06:36:14.176Z,73.50
2022-12-18T06:38:44.138Z,73.50
2022-12-18T06:41:16.494Z,73.50
2022-12-18T06:43:44.829Z,73.60
2022-12-18T06:46:13.195Z,73.60
2022-12-18T06:48:40.646Z,73.60
2022-12-18T06:51:10.014Z,73.60
2022-12-18T06:53:37.337Z,73.60
2022-12-18T06:56:11.154Z,73.70
2022-12-18T06:58:39.996Z,73.70
2022-12-18T07:01:12.096Z,73.70
2022-12-18T07:03:42.196Z,73.70
2022-12-18T07:06:21.772Z,73.70
2022-12-18T07:08:56.030Z,73.70
2022-12-18T07:11:23.915Z,73.70
2022-12-18T07:13:50.978Z,73.70
2022-12-18T07:16:24.860Z,73.70
2022-12-18T07:18:53.668Z,73.80
2022-12-18T07:21:22.073Z,73.80
2022-12-18T07:23:50.883Z,73.80
2022-12-18T07:26:20.801Z,73.70
2022-12-18T07:28:48.773Z,73.70
2022-12-18T07:31:21.511Z,73.70
2022-12-18T07:33:49.270Z,73.70
2022-12-18T07:36:16.589Z,73.70
2022-12-18T07:38:54.001Z,73.70
2022-12-18T07:41:21.739Z,73.70
2022-12-18T07:43:49.100Z,73.70
2022-12-18T07:46:17.706Z,73.70
2022-12-18T07:48:50.235Z,73.70
2022-12-18T07:51:19.388Z,73.70
2022-12-18T07:53:46.835Z,73.70
2022-12-18T07:56:27.129Z,73.60
2022-12-18T07:58:55.373Z,73.60
2022-12-18T08:01:22.644Z,73.60
2022-12-18T08:03:52.521Z,73.60
2022-12-18T08:06:24.283Z,73.60
2022-12-18T08:09:00.200Z,73.70
2022-12-18T08:11:29.733Z,73.70
2022-12-18T08:13:57.875Z,73.70
2022-12-18T08:16:25.076Z,73.70
2022-12-18T08:18:54.647Z,73.70
2022-12-18T08:21:31.808Z,73.70
2022-12-18T08:24:01.856Z,73.70
2022-12-18T08:26:39.939Z,73.70
2022-12-18T08:29:07.044Z,73.60
2022-12-18T08:31:36.525Z,73.60
2022-12-18T08:34:09.278Z,73.60
2022-12-18T08:36:37.098Z,73.60
2022-12-18T08:39:04.193Z,73.70
2022-12-18T08:41:31.986Z,73.80
2022-12-18T08:44:19.630Z,73.90
2022-12-18T08:46:46.793Z,73.90
2022-12-18T08:49:14.130Z,73.90
2022-12-18T08:51:41.285Z,73.80
2022-12-18T08:54:18.054Z,73.80
2022-12-18T08:56:47.498Z,73.60
2022-12-18T08:59:20.152Z,73.60
2022-12-18T09:01:49.205Z,73.50
2022-12-18T09:04:16.585Z,73.40
2022-12-18T09:06:43.587Z,73.50
2022-12-18T09:09:11.912Z,73.60
2022-12-18T09:11:39.313Z,73.60
2022-12-18T09:14:06.771Z,73.60
2022-12-18T09:16:36.133Z,73.50
2022-12-18T09:19:05.695Z,73.20
2022-12-18T09:21:37.444Z,73.00
2022-12-18T09:24:09.108Z,72.90
2022-12-18T09:26:37.260Z,73.00
2022-12-18T09:29:05.517Z,73.00
2022-12-18T09:31:32.721Z,73.00
2022-12-18T09:33:59.919Z,73.20
2022-12-18T09:36:29.998Z,73.40
2022-12-18T09:38:57.047Z,73.50
2022-12-18T09:41:47.086Z,73.70
2022-12-18T09:44:26.074Z,73.70
2022-12-18T09:47:33.734Z,73.70
2022-12-18T09:50:34.273Z,73.80
2022-12-18T09:53:07.901Z,73.80
2022-12-18T09:55:43.533Z,73.60
2022-12-18T09:58:11.257Z,73.50
2022-12-18T10:00:38.355Z,73.20
2022-12-18T10:03:13.598Z,73.00
2022-12-18T10:06:08.216Z,73.10
2022-12-18T10:08:54.879Z,73.00
2022-12-18T10:11:54.255Z,73.00
2022-12-18T10:14:48.551Z,72.80
2022-12-18T10:17:53.300Z,72.70
2022-12-18T10:20:49.633Z,72.70
2022-12-18T10:23:48.038Z,72.80
2022-12-18T10:26:15.717Z,72.60
2022-12-18T10:28:47.830Z,72.80
2022-12-18T10:31:20.512Z,72.70
2022-12-18T10:33:47.857Z,72.80
2022-12-18T10:36:15.344Z,72.50
2022-12-18T10:38:43.257Z,72.40
2022-12-18T10:41:26.719Z,72.30
2022-12-18T10:44:29.217Z,72.30
2022-12-18T10:47:10.172Z,72.10
2022-12-18T10:49:52.457Z,72.30
2022-12-18T10:52:26.257Z,72.40
2022-12-18T10:55:06.987Z,72.30
2022-12-18T10:57:36.668Z,72.10
2022-12-18T11:00:26.036Z,72.30
2022-12-18T11:02:53.920Z,72.00
2022-12-18T11:05:33.945Z,72.10
2022-12-18T11:08:04.473Z,72.00
2022-12-18T11:10:43.034Z,72.00
2022-12-18T11:13:27.492Z,71.90
2022-12-18T11:15:54.653Z,71.60
2022-12-18T11:18:33.187Z,71.60
2022-12-18T11:21:08.636Z,71.60
2022-12-18T11:23:37.634Z,71.50
2022-12-18T11:26:07.066Z,71.40
2022-12-18T11:28:47.613Z,71.30
2022-12-18T11:31:29.233Z,71.30
2022-12-18T11:36:50.843Z,70.50
2022-12-18T11:39:24.925Z,71.20
2022-12-18T11:42:12.748Z,71.10
2022-12-18T11:44:52.940Z,71.10
2022-12-18T11:47:40.858Z,71.10
2022-12-18T11:50:53.346Z,71.00
2022-12-18T11:53:21.562Z,71.00
2022-12-18T11:55:56.104Z,71.30
2022-12-18T11:58:35.075Z,71.30
2022-12-18T12:01:20.042Z,71.30
2022-12-18T12:04:38.708Z,71.30
2022-12-18T12:07:57.893Z,70.90
2022-12-18T12:10:36.676Z,71.00
2022-12-18T12:13:46.630Z,71.40
2022-12-18T12:16:30.960Z,71.20
2022-12-18T12:19:18.821Z,71.50
2022-12-18T12:22:41.268Z,71.50
2022-12-18T12:25:30.792Z,71.30
2022-12-18T12:28:24.243Z,71.10
2022-12-18T12:31:04.271Z,70.40
2022-12-18T12:34:08.738Z,70.90
2022-12-18T12:37:21.923Z,70.90
2022-12-18T12:39:49.348Z,70.90
2022-12-18T12:42:49.695Z,70.80
2022-12-18T12:45:29.712Z,70.80
2022-12-18T12:47:59.249Z,70.80
2022-12-18T12:50:27.134Z,70.80
2022-12-18T12:53:00.598Z,70.70
2022-12-18T12:55:29.928Z,70.70
2022-12-18T12:58:17.691Z,70.70
2022-12-18T13:01:09.913Z,70.60
2022-12-18T13:04:15.433Z,70.30
2022-12-18T13:07:04.639Z,70.10
2022-12-18T13:09:36.881Z,70.60
2022-12-18T13:12:30.298Z,70.40
2022-12-18T13:15:42.456Z,70.30
2022-12-18T13:18:09.528Z,69.90
2022-12-18T13:20:52.241Z,70.20
2022-12-18T13:23:41.123Z,70.30
2022-12-18T13:26:11.412Z,70.30
2022-12-18T13:28:48.029Z,70.40
2022-12-18T13:31:43.394Z,70.30
2022-12-18T13:34:33.514Z,70.30
2022-12-18T13:37:46.406Z,70.10
2022-12-18T13:41:05.772Z,70.10
2022-12-18T13:43:48.788Z,70.20
2022-12-18T13:46:31.754Z,70.80
2022-12-18T13:49:24.295Z,70.70
2022-12-18T13:51:55.822Z,70.70
2022-12-18T13:54:38.282Z,70.90
2022-12-18T13:57:11.317Z,71.00
2022-12-18T13:59:40.667Z,71.20
2022-12-18T14:02:18.274Z,71.10
2022-12-18T14:04:50.561Z,70.70
2022-12-18T14:07:20.391Z,70.80
2022-12-18T14:10:06.446Z,69.90
2022-12-18T14:13:01.134Z,70.60
2022-12-18T14:15:42.064Z,70.00
2022-12-18T14:18:32.725Z,69.50
2022-12-18T14:21:02.684Z,69.10
2022-12-18T14:23:39.890Z,68.90
2022-12-18T14:26:30.729Z,68.70
2022-12-18T14:29:02.776Z,68.10
2022-12-18T14:31:33.238Z,68.50
2022-12-18T14:34:00.239Z,68.30
2022-12-18T14:36:30.854Z,68.10
2022-12-18T14:39:03.709Z,67.90
2022-12-18T14:41:34.112Z,67.70
2022-12-18T14:44:08.245Z,67.60
2022-12-18T14:46:41.330Z,67.50
2022-12-18T14:49:34.912Z,67.60
2022-12-18T14:52:06.677Z,67.40
2022-12-18T14:54:38.324Z,67.50
2022-12-18T14:57:16.251Z,67.40
2022-12-18T14:59:43.379Z,67.50
2022-12-18T15:02:27.290Z,67.50
2022-12-18T15:05:22.324Z,67.30
2022-12-18T15:07:53.685Z,67.00
2022-12-18T15:10:24.948Z,67.30
2022-12-18T15:13:10.770Z,67.40
2022-12-18T15:15:38.075Z,67.40
2022-12-18T15:18:22.675Z,67.50
2022-12-18T15:21:05.292Z,67.50
2022-12-18T15:23:54.199Z,67.60
2022-12-18T15:26:23.203Z,67.70
2022-12-18T15:28:59.455Z,67.80
2022-12-18T15:31:37.579Z,67.90
2022-12-18T15:34:15.057Z,67.90
2022-12-18T15:36:44.200Z,67.90
2022-12-18T15:39:14.250Z,68.10
2022-12-18T15:41:41.651Z,68.20
2022-12-18T15:44:26.536Z,68.30
2022-12-18T15:46:53.882Z,68.30
2022-12-18T15:49:21.096Z,68.40
2022-12-18T15:51:54.530Z,68.50
2022-12-18T15:54:44.863Z,68.60
2022-12-18T15:57:25.031Z,68.60
2022-12-18T15:59:55.148Z,68.60
2022-12-18T16:02:25.993Z,68.60
2022-12-18T16:04:56.346Z,68.70
2022-12-18T16:07:23.857Z,68.70
2022-12-18T16:09:52.183Z,68.80
2022-12-18T16:12:26.147Z,68.80
2022-12-18T16:14:53.287Z,68.90
2022-12-18T16:17:22.269Z,68.90
2022-12-18T16:19:49.349Z,68.90
2022-12-18T16:22:22.401Z,68.90
2022-12-18T16:24:51.298Z,68.90
2022-12-18T16:27:18.435Z,68.90
2022-12-18T16:29:46.685Z,68.90
2022-12-18T16:32:17.274Z,68.90
2022-12-18T16:34:47.902Z,68.90
2022-12-18T16:37:16.886Z,68.90
2022-12-18T16:39:44.303Z,69.00
2022-12-18T16:42:20.961Z,69.00
2022-12-18T16:44:49.926Z,69.00
2022-12-18T16:47:18.268Z,69.00
2022-12-18T16:49:47.290Z,69.00
2022-12-18T16:52:16.185Z,69.10
2022-12-18T16:54:46.422Z,69.10
2022-12-18T16:57:16.382Z,69.10
2022-12-18T16:59:43.699Z,69.20
2022-12-18T17:02:23.536Z,69.20
2022-12-18T17:04:55.194Z,69.30
2022-12-18T17:07:22.337Z,69.30
2022-12-18T17:09:52.400Z,69.30
2022-12-18T17:12:21.024Z,69.30
2022-12-18T17:14:50.527Z,69.30
2022-12-18T17:17:22.708Z,69.40
2022-12-18T17:19:52.526Z,69.50
2022-12-18T17:22:20.983Z,69.50
2022-12-18T17:24:48.275Z,69.60
2022-12-18T17:27:16.054Z,69.60
2022-12-18T17:29:47.691Z,69.70
2022-12-18T17:32:19.510Z,69.80
2022-12-18T17:34:49.563Z,69.80
2022-12-18T17:37:19.338Z,69.80
2022-12-18T17:39:46.723Z,69.90
2022-12-18T17:42:16.419Z,69.90
2022-12-18T17:44:45.173Z,69.90
2022-12-18T17:47:14.892Z,69.90
2022-12-18T17:49:47.790Z,70.00
2022-12-18T17:52:20.046Z,70.00
2022-12-18T17:54:49.610Z,70.10
2022-12-18T17:57:17.275Z,70.20
2022-12-18T17:59:44.834Z,70.30
2022-12-18T18:02:12.450Z,70.30
2022-12-18T18:04:39.802Z,70.50
2022-12-18T18:07:06.871Z,70.60
2022-12-18T18:09:34.002Z,70.70
2022-12-18T18:12:22.654Z,70.70
2022-12-18T18:14:50.004Z,70.80
2022-12-18T18:17:17.978Z,70.80
2022-12-18T18:19:49.618Z,70.80
2022-12-18T18:22:18.027Z,70.90
2022-12-18T18:24:47.211Z,70.90
2022-12-18T18:27:16.131Z,71.00
2022-12-18T18:29:45.429Z,71.00
2022-12-18T18:32:12.622Z,71.00
2022-12-18T18:34:39.973Z,71.00
2022-12-18T18:37:07.082Z,71.00
2022-12-18T18:39:34.435Z,71.00
2022-12-18T18:42:03.639Z,70.90
2022-12-18T18:44:30.826Z,70.90
2022-12-18T18:46:59.040Z,70.90
2022-12-18T18:49:27.901Z,70.90
2022-12-18T18:51:56.957Z,70.90
2022-12-18T18:54:25.539Z,70.90
2022-12-18T18:59:40.506Z,70.90
2022-12-18T19:02:11.634Z,70.90
2022-12-18T19:04:43.093Z,71.00
2022-12-18T19:07:12.973Z,71.10
2022-12-18T19:09:42.132Z,70.90
2022-12-18T19:12:28.680Z,70.90
2022-12-18T19:14:56.049Z,71.00
2022-12-18T19:17:28.062Z,71.10
2022-12-18T19:19:56.893Z,71.10
2022-12-18T19:22:24.284Z,71.10
2022-12-18T19:24:51.403Z,71.20
2022-12-18T19:27:18.439Z,71.40
2022-12-18T19:29:45.448Z,71.50
2022-12-18T19:32:12.596Z,71.60
2022-12-18T19:34:40.233Z,71.60
2022-12-18T19:37:07.430Z,71.60
2022-12-18T19:39:34.692Z,71.70
2022-12-18T19:42:02.356Z,71.60
2022-12-18T19:44:29.537Z,71.60
2022-12-18T19:46:56.569Z,71.70
2022-12-18T19:49:23.538Z,71.70
2022-12-18T19:51:51.259Z,71.70
2022-12-18T19:54:18.450Z,71.70
2022-12-18T19:56:46.086Z,71.70
2022-12-18T19:59:13.924Z,71.70
2022-12-18T20:01:41.583Z,71.70
2022-12-18T20:04:09.060Z,71.70
2022-12-18T20:06:52.400Z,71.70
2022-12-18T20:09:20.732Z,71.70
2022-12-18T20:11:49.316Z,71.70
2022-12-18T20:14:19.671Z,71.70
2022-12-18T20:16:52.323Z,71.70
2022-12-18T20:19:20.775Z,71.80
2022-12-18T20:21:48.209Z,71.90
2022-12-18T20:24:17.362Z,71.90
2022-12-18T20:26:44.357Z,71.90
2022-12-18T20:29:11.432Z,71.90
2022-12-18T20:31:38.562Z,71.90
2022-12-18T20:34:06.213Z,72.00
2022-12-18T20:36:36.271Z,72.00
2022-12-18T20:39:06.433Z,72.00
2022-12-18T20:41:38.215Z,72.10
2022-12-18T20:44:21.686Z,72.10
2022-12-18T20:46:56.397Z,72.10
2022-12-18T20:49:25.927Z,72.00
2022-12-18T20:51:56.489Z,72.00
2022-12-18T20:54:26.533Z,72.00
2022-12-18T20:56:53.724Z,72.10
2022-12-18T20:59:23.162Z,72.10
2022-12-18T21:01:52.134Z,72.10
2022-12-18T21:04:23.256Z,72.10
2022-12-18T21:06:55.744Z,72.10
2022-12-18T21:09:27.706Z,72.10
2022-12-18T21:12:16.965Z,72.20
2022-12-18T21:14:44.941Z,72.20
2022-12-18T21:17:13.803Z,72.20
2022-12-18T21:19:40.925Z,72.30
2022-12-18T21:22:08.446Z,72.30
2022-12-18T21:24:35.630Z,72.40
2022-12-18T21:27:02.739Z,72.40
2022-12-18T21:29:30.175Z,72.40
2022-12-18T21:31:57.508Z,72.50
2022-12-18T21:34:28.525Z,72.50
2022-12-18T21:36:57.983Z,72.50
2022-12-18T21:39:27.553Z,72.60
2022-12-18T21:42:14.427Z,72.70
2022-12-18T21:44:42.526Z,72.70
2022-12-18T21:47:22.821Z,72.80
2022-12-18T21:49:52.200Z,72.90
2022-12-18T21:52:20.067Z,72.90
2022-12-18T21:54:49.191Z,72.90
2022-12-18T21:57:16.240Z,73.00
2022-12-18T21:59:43.756Z,73.00
2022-12-18T22:02:15.621Z,73.00
2022-12-18T22:04:44.608Z,72.90
2022-12-18T22:07:13.692Z,72.90
2022-12-18T22:09:41.018Z,72.90
2022-12-18T22:12:09.221Z,72.90
2022-12-18T22:14:36.770Z,72.90
2022-12-18T22:17:04.133Z,72.90
2022-12-18T22:19:33.413Z,72.80
2022-12-18T22:22:02.721Z,72.80
2022-12-18T22:24:29.908Z,72.80
2022-12-18T22:27:02.040Z,72.70
2022-12-18T22:29:48.364Z,72.70
2022-12-18T22:32:22.116Z,72.70
2022-12-18T22:35:09.499Z,72.60
2022-12-18T22:37:39.948Z,72.60
2022-12-18T22:43:23.539Z,72.70
2022-12-18T22:45:50.572Z,72.60
2022-12-18T22:48:17.775Z,72.70
2022-12-18T22:50:45.448Z,72.70
2022-12-18T22:53:12.459Z,72.60
2022-12-18T22:55:39.934Z,72.60
2022-12-18T22:58:06.976Z,72.60
2022-12-18T23:00:34.004Z,72.60
2022-12-18T23:03:01.741Z,72.60
2022-12-18T23:05:30.858Z,72.60
2022-12-18T23:07:58.854Z,72.60
2022-12-18T23:10:26.449Z,72.60
2022-12-18T23:12:53.542Z,72.60
2022-12-18T23:15:27.946Z,72.60
2022-12-18T23:17:56.789Z,72.60
2022-12-18T23:20:23.999Z,72.60
2022-12-18T23:22:51.173Z,72.60
2022-12-18T23:25:21.077Z,72.70
2022-12-18T23:27:48.166Z,72.70
2022-12-18T23:30:15.694Z,72.70
2022-12-18T23:32:42.863Z,72.70
2022-12-18T23:35:10.004Z,72.70
2022-12-18T23:38:03.687Z,72.70
2022-12-18T23:40:27.530Z,72.70
2022-12-18T23:42:54.655Z,72.70
2022-12-18T23:45:21.731Z,72.70
2022-12-18T23:47:50.927Z,72.70
2022-12-18T23:50:18.599Z,72.70
2022-12-18T23:52:45.632Z,72.70
2022-12-18T23:55:12.643Z,72.70
2022-12-18T23:57:39.655Z,72.70
